sensor_id;sensor_type;location;lat;lon;timestamp;pressure;altitude;pressure_sealevel;temperature
67353;BMP180;54238;52.278;21.056;2023-08-17T00:00:45;100833.40;;;27.46
67353;BMP180;54238;52.278;21.056;2023-08-17T00:03:33;100824.00;;;27.40
67353;BMP180;54238;52.278;21.056;2023-08-17T00:06:02;100830.20;;;27.40
67353;BMP180;54238;52.278;21.056;2023-08-17T00:08:34;100833.80;;;27.40
67353;BMP180;54238;52.278;21.056;2023-08-17T00:11:03;100832.00;;;27.30
67353;BMP180;54238;52.278;21.056;2023-08-17T00:13:37;100833.00;;;27.30
67353;BMP180;54238;52.278;21.056;2023-08-17T00:16:04;100834.20;;;27.30
67353;BMP180;54238;52.278;21.056;2023-08-17T00:18:31;100841.60;;;27.22
67353;BMP180;54238;52.278;21.056;2023-08-17T00:20:59;100840.40;;;27.20
67353;BMP180;54238;52.278;21.056;2023-08-17T00:23:26;100839.80;;;27.20
67353;BMP180;54238;52.278;21.056;2023-08-17T00:25:58;100845.00;;;27.10
67353;BMP180;54238;52.278;21.056;2023-08-17T00:28:30;100839.80;;;27.02
67353;BMP180;54238;52.278;21.056;2023-08-17T00:30:57;100835.40;;;27.00
67353;BMP180;54238;52.278;21.056;2023-08-17T00:33:29;100834.40;;;27.00
67353;BMP180;54238;52.278;21.056;2023-08-17T00:35:58;100841.40;;;27.00
67353;BMP180;54238;52.278;21.056;2023-08-17T00:38:28;100845.60;;;27.00
67353;BMP180;54238;52.278;21.056;2023-08-17T00:40:57;100841.00;;;27.00
67353;BMP180;54238;52.278;21.056;2023-08-17T00:43:28;100840.80;;;27.00
67353;BMP180;54238;52.278;21.056;2023-08-17T00:46:00;100841.40;;;27.00
67353;BMP180;54238;52.278;21.056;2023-08-17T00:48:31;100835.80;;;27.00
67353;BMP180;54238;52.278;21.056;2023-08-17T00:51:04;100843.40;;;27.00
67353;BMP180;54238;52.278;21.056;2023-08-17T00:53:37;100853.80;;;27.00
67353;BMP180;54238;52.278;21.056;2023-08-17T00:56:07;100852.20;;;26.98
67353;BMP180;54238;52.278;21.056;2023-08-17T00:58:40;100852.00;;;27.00
67353;BMP180;54238;52.278;21.056;2023-08-17T01:01:10;100856.00;;;26.96
67353;BMP180;54238;52.278;21.056;2023-08-17T01:03:43;100855.00;;;27.00
67353;BMP180;54238;52.278;21.056;2023-08-17T01:06:15;100845.00;;;26.92
67353;BMP180;54238;52.278;21.056;2023-08-17T01:08:48;100847.00;;;26.98
67353;BMP180;54238;52.278;21.056;2023-08-17T01:14:03;100851.00;;;26.90
67353;BMP180;54238;52.278;21.056;2023-08-17T01:16:38;100849.00;;;26.90
67353;BMP180;54238;52.278;21.056;2023-08-17T01:19:17;100853.40;;;26.90
67353;BMP180;54238;52.278;21.056;2023-08-17T01:21:51;100850.20;;;26.90
67353;BMP180;54238;52.278;21.056;2023-08-17T01:24:21;100847.00;;;26.90
67353;BMP180;54238;52.278;21.056;2023-08-17T01:26:48;100844.00;;;26.86
67353;BMP180;54238;52.278;21.056;2023-08-17T01:29:15;100843.20;;;26.82
67353;BMP180;54238;52.278;21.056;2023-08-17T01:31:54;100838.80;;;26.80
67353;BMP180;54238;52.278;21.056;2023-08-17T01:34:32;100835.60;;;26.80
67353;BMP180;54238;52.278;21.056;2023-08-17T01:37:03;100832.40;;;26.80
67353;BMP180;54238;52.278;21.056;2023-08-17T01:39:38;100829.00;;;26.80
67353;BMP180;54238;52.278;21.056;2023-08-17T01:42:06;100830.60;;;26.70
67353;BMP180;54238;52.278;21.056;2023-08-17T01:44:36;100830.80;;;26.60
67353;BMP180;54238;52.278;21.056;2023-08-17T01:47:08;100820.40;;;26.50
67353;BMP180;54238;52.278;21.056;2023-08-17T01:49:36;100831.60;;;26.40
67353;BMP180;54238;52.278;21.056;2023-08-17T01:52:03;100844.60;;;26.40
67353;BMP180;54238;52.278;21.056;2023-08-17T01:54:33;100847.20;;;26.32
67353;BMP180;54238;52.278;21.056;2023-08-17T01:57:00;100839.40;;;26.32
67353;BMP180;54238;52.278;21.056;2023-08-17T01:59:30;100836.40;;;26.30
67353;BMP180;54238;52.278;21.056;2023-08-17T02:01:57;100838.80;;;26.30
67353;BMP180;54238;52.278;21.056;2023-08-17T02:04:25;100833.80;;;26.20
67353;BMP180;54238;52.278;21.056;2023-08-17T02:06:54;100832.80;;;26.20
67353;BMP180;54238;52.278;21.056;2023-08-17T02:09:22;100833.40;;;26.20
67353;BMP180;54238;52.278;21.056;2023-08-17T02:11:53;100842.40;;;26.20
67353;BMP180;54238;52.278;21.056;2023-08-17T02:14:20;100842.20;;;26.10
67353;BMP180;54238;52.278;21.056;2023-08-17T02:16:52;100838.00;;;26.10
67353;BMP180;54238;52.278;21.056;2023-08-17T02:19:19;100835.60;;;26.08
67353;BMP180;54238;52.278;21.056;2023-08-17T02:21:56;100833.00;;;26.00
67353;BMP180;54238;52.278;21.056;2023-08-17T02:24:23;100832.80;;;26.00
67353;BMP180;54238;52.278;21.056;2023-08-17T02:26:50;100827.40;;;25.96
67353;BMP180;54238;52.278;21.056;2023-08-17T02:29:18;100826.60;;;25.90
67353;BMP180;54238;52.278;21.056;2023-08-17T02:31:45;100825.80;;;25.80
67353;BMP180;54238;52.278;21.056;2023-08-17T02:34:16;100825.20;;;25.80
67353;BMP180;54238;52.278;21.056;2023-08-17T02:36:46;100821.80;;;25.80
67353;BMP180;54238;52.278;21.056;2023-08-17T02:39:15;100824.40;;;25.80
67353;BMP180;54238;52.278;21.056;2023-08-17T02:41:44;100829.00;;;25.80
67353;BMP180;54238;52.278;21.056;2023-08-17T02:44:14;100827.80;;;25.70
67353;BMP180;54238;52.278;21.056;2023-08-17T02:46:46;100827.80;;;25.70
67353;BMP180;54238;52.278;21.056;2023-08-17T02:49:16;100831.40;;;25.60
67353;BMP180;54238;52.278;21.056;2023-08-17T02:51:43;100833.60;;;25.60
67353;BMP180;54238;52.278;21.056;2023-08-17T02:54:10;100835.00;;;25.60
67353;BMP180;54238;52.278;21.056;2023-08-17T02:56:37;100838.80;;;25.60
67353;BMP180;54238;52.278;21.056;2023-08-17T02:59:09;100838.80;;;25.50
67353;BMP180;54238;52.278;21.056;2023-08-17T03:01:36;100835.00;;;25.50
67353;BMP180;54238;52.278;21.056;2023-08-17T03:04:04;100833.60;;;25.50
67353;BMP180;54238;52.278;21.056;2023-08-17T03:06:33;100837.00;;;25.50
67353;BMP180;54238;52.278;21.056;2023-08-17T03:09:05;100838.20;;;25.50
67353;BMP180;54238;52.278;21.056;2023-08-17T03:11:36;100842.00;;;25.50
67353;BMP180;54238;52.278;21.056;2023-08-17T03:14:03;100845.20;;;25.50
67353;BMP180;54238;52.278;21.056;2023-08-17T03:16:40;100852.20;;;25.50
67353;BMP180;54238;52.278;21.056;2023-08-17T03:19:12;100859.20;;;25.46
67353;BMP180;54238;52.278;21.056;2023-08-17T03:21:39;100860.80;;;25.40
67353;BMP180;54238;52.278;21.056;2023-08-17T03:24:10;100858.40;;;25.40
67353;BMP180;54238;52.278;21.056;2023-08-17T03:26:42;100859.00;;;25.42
67353;BMP180;54238;52.278;21.056;2023-08-17T03:29:09;100865.60;;;25.48
67353;BMP180;54238;52.278;21.056;2023-08-17T03:31:39;100864.40;;;25.50
67353;BMP180;54238;52.278;21.056;2023-08-17T03:34:06;100867.40;;;25.44
67353;BMP180;54238;52.278;21.056;2023-08-17T03:36:36;100869.60;;;25.42
67353;BMP180;54238;52.278;21.056;2023-08-17T03:39:03;100873.40;;;25.40
67353;BMP180;54238;52.278;21.056;2023-08-17T03:41:31;100875.00;;;25.40
67353;BMP180;54238;52.278;21.056;2023-08-17T03:43:58;100883.60;;;25.40
67353;BMP180;54238;52.278;21.056;2023-08-17T03:46:32;100892.60;;;25.40
67353;BMP180;54238;52.278;21.056;2023-08-17T03:49:01;100896.80;;;25.30
67353;BMP180;54238;52.278;21.056;2023-08-17T03:51:37;100889.40;;;25.30
67353;BMP180;54238;52.278;21.056;2023-08-17T03:54:08;100884.80;;;25.22
67353;BMP180;54238;52.278;21.056;2023-08-17T03:56:37;100879.80;;;25.26
67353;BMP180;54238;52.278;21.056;2023-08-17T03:59:06;100879.20;;;25.30
67353;BMP180;54238;52.278;21.056;2023-08-17T04:01:36;100872.00;;;25.30
67353;BMP180;54238;52.278;21.056;2023-08-17T04:04:05;100865.80;;;25.30
67353;BMP180;54238;52.278;21.056;2023-08-17T04:06:37;100872.20;;;25.32
67353;BMP180;54238;52.278;21.056;2023-08-17T04:09:06;100875.80;;;25.40
67353;BMP180;54238;52.278;21.056;2023-08-17T04:11:35;100880.80;;;25.40
67353;BMP180;54238;52.278;21.056;2023-08-17T04:14:05;100879.40;;;25.40
67353;BMP180;54238;52.278;21.056;2023-08-17T04:16:35;100878.60;;;25.40
67353;BMP180;54238;52.278;21.056;2023-08-17T04:19:02;100885.20;;;25.50
67353;BMP180;54238;52.278;21.056;2023-08-17T04:21:30;100882.60;;;25.50
67353;BMP180;54238;52.278;21.056;2023-08-17T04:23:57;100882.40;;;25.50
67353;BMP180;54238;52.278;21.056;2023-08-17T04:26:28;100888.60;;;25.50
67353;BMP180;54238;52.278;21.056;2023-08-17T04:28:59;100892.60;;;25.50
67353;BMP180;54238;52.278;21.056;2023-08-17T04:31:27;100885.60;;;25.50
67353;BMP180;54238;52.278;21.056;2023-08-17T04:33:54;100886.60;;;25.50
67353;BMP180;54238;52.278;21.056;2023-08-17T04:36:24;100882.20;;;25.50
67353;BMP180;54238;52.278;21.056;2023-08-17T04:38:51;100881.40;;;25.50
67353;BMP180;54238;52.278;21.056;2023-08-17T04:41:18;100881.60;;;25.50
67353;BMP180;54238;52.278;21.056;2023-08-17T04:43:45;100885.00;;;25.52
67353;BMP180;54238;52.278;21.056;2023-08-17T04:46:18;100886.20;;;25.60
67353;BMP180;54238;52.278;21.056;2023-08-17T04:48:45;100889.40;;;25.70
67353;BMP180;54238;52.278;21.056;2023-08-17T04:51:13;100884.60;;;25.70
67353;BMP180;54238;52.278;21.056;2023-08-17T04:53:45;100884.20;;;25.80
67353;BMP180;54238;52.278;21.056;2023-08-17T04:56:14;100885.40;;;25.80
67353;BMP180;54238;52.278;21.056;2023-08-17T04:58:47;100881.40;;;25.90
67353;BMP180;54238;52.278;21.056;2023-08-17T05:01:17;100885.20;;;25.94
67353;BMP180;54238;52.278;21.056;2023-08-17T05:03:47;100885.00;;;26.00
67353;BMP180;54238;52.278;21.056;2023-08-17T05:06:16;100891.80;;;26.00
67353;BMP180;54238;52.278;21.056;2023-08-17T05:08:43;100887.00;;;26.00
67353;BMP180;54238;52.278;21.056;2023-08-17T05:11:10;100885.00;;;26.00
67353;BMP180;54238;52.278;21.056;2023-08-17T05:13:40;100889.00;;;26.02
67353;BMP180;54238;52.278;21.056;2023-08-17T05:16:12;100891.40;;;26.10
67353;BMP180;54238;52.278;21.056;2023-08-17T05:18:43;100886.20;;;26.10
67353;BMP180;54238;52.278;21.056;2023-08-17T05:21:16;100886.40;;;26.10
67353;BMP180;54238;52.278;21.056;2023-08-17T05:23:45;100889.40;;;26.10
67353;BMP180;54238;52.278;21.056;2023-08-17T05:26:19;100887.80;;;26.20
67353;BMP180;54238;52.278;21.056;2023-08-17T05:28:48;100892.20;;;26.20
67353;BMP180;54238;52.278;21.056;2023-08-17T05:31:20;100883.60;;;26.20
67353;BMP180;54238;52.278;21.056;2023-08-17T05:33:50;100885.00;;;26.20
67353;BMP180;54238;52.278;21.056;2023-08-17T05:36:19;100890.00;;;26.30
67353;BMP180;54238;52.278;21.056;2023-08-17T05:38:47;100884.00;;;26.30
67353;BMP180;54238;52.278;21.056;2023-08-17T05:41:16;100883.80;;;26.30
67353;BMP180;54238;52.278;21.056;2023-08-17T05:43:44;100883.40;;;26.30
67353;BMP180;54238;52.278;21.056;2023-08-17T05:46:11;100882.00;;;26.30
67353;BMP180;54238;52.278;21.056;2023-08-17T05:48:43;100884.40;;;26.30
67353;BMP180;54238;52.278;21.056;2023-08-17T05:51:12;100884.20;;;26.30
67353;BMP180;54238;52.278;21.056;2023-08-17T05:53:41;100882.80;;;26.34
67353;BMP180;54238;52.278;21.056;2023-08-17T05:56:08;100881.00;;;26.30
67353;BMP180;54238;52.278;21.056;2023-08-17T05:58:40;100879.60;;;26.32
67353;BMP180;54238;52.278;21.056;2023-08-17T06:01:11;100873.00;;;26.38
67353;BMP180;54238;52.278;21.056;2023-08-17T06:03:40;100876.80;;;26.32
67353;BMP180;54238;52.278;21.056;2023-08-17T06:06:08;100873.60;;;26.32
67353;BMP180;54238;52.278;21.056;2023-08-17T06:08:36;100876.60;;;26.38
67353;BMP180;54238;52.278;21.056;2023-08-17T06:11:05;100874.60;;;26.38
67353;BMP180;54238;52.278;21.056;2023-08-17T06:13:32;100878.00;;;26.40
67353;BMP180;54238;52.278;21.056;2023-08-17T06:16:04;100880.60;;;26.40
67353;BMP180;54238;52.278;21.056;2023-08-17T06:18:34;100877.40;;;26.40
67353;BMP180;54238;52.278;21.056;2023-08-17T06:21:06;100874.60;;;26.40
67353;BMP180;54238;52.278;21.056;2023-08-17T06:23:33;100878.40;;;26.50
67353;BMP180;54238;52.278;21.056;2023-08-17T06:26:01;100879.60;;;26.50
67353;BMP180;54238;52.278;21.056;2023-08-17T06:28:30;100881.00;;;26.60
67353;BMP180;54238;52.278;21.056;2023-08-17T06:31:00;100881.20;;;26.70
67353;BMP180;54238;52.278;21.056;2023-08-17T06:33:29;100882.00;;;26.74
67353;BMP180;54238;52.278;21.056;2023-08-17T06:36:01;100885.60;;;26.84
67353;BMP180;54238;52.278;21.056;2023-08-17T06:38:34;100887.00;;;26.98
67353;BMP180;54238;52.278;21.056;2023-08-17T06:41:01;100884.40;;;27.10
67353;BMP180;54238;52.278;21.056;2023-08-17T06:43:31;100888.20;;;27.20
67353;BMP180;54238;52.278;21.056;2023-08-17T06:46:00;100891.40;;;27.32
67353;BMP180;54238;52.278;21.056;2023-08-17T06:48:28;100896.60;;;27.50
67353;BMP180;54238;52.278;21.056;2023-08-17T06:50:58;100894.80;;;27.50
67353;BMP180;54238;52.278;21.056;2023-08-17T06:53:25;100898.00;;;27.60
67353;BMP180;54238;52.278;21.056;2023-08-17T06:55:57;100899.40;;;27.60
67353;BMP180;54238;52.278;21.056;2023-08-17T06:58:29;100904.40;;;27.70
67353;BMP180;54238;52.278;21.056;2023-08-17T07:00:57;100910.80;;;27.80
67353;BMP180;54238;52.278;21.056;2023-08-17T07:03:29;100908.00;;;27.90
67353;BMP180;54238;52.278;21.056;2023-08-17T07:06:01;100907.40;;;27.90
67353;BMP180;54238;52.278;21.056;2023-08-17T07:08:33;100909.60;;;27.90
67353;BMP180;54238;52.278;21.056;2023-08-17T07:11:00;100905.40;;;27.96
67353;BMP180;54238;52.278;21.056;2023-08-17T07:13:31;100909.60;;;28.00
67353;BMP180;54238;52.278;21.056;2023-08-17T07:16:00;100905.40;;;28.00
67353;BMP180;54238;52.278;21.056;2023-08-17T07:18:34;100905.60;;;28.10
67353;BMP180;54238;52.278;21.056;2023-08-17T07:21:01;100902.20;;;28.10
67353;BMP180;54238;52.278;21.056;2023-08-17T07:23:29;100901.80;;;28.20
67353;BMP180;54238;52.278;21.056;2023-08-17T07:25:56;100905.20;;;28.30
67353;BMP180;54238;52.278;21.056;2023-08-17T07:28:23;100899.20;;;28.50
67353;BMP180;54238;52.278;21.056;2023-08-17T07:30:55;100907.60;;;28.70
67353;BMP180;54238;52.278;21.056;2023-08-17T07:33:24;100908.20;;;28.90
67353;BMP180;54238;52.278;21.056;2023-08-17T07:35:56;100907.60;;;29.00
67353;BMP180;54238;52.278;21.056;2023-08-17T07:38:28;100901.40;;;29.10
67353;BMP180;54238;52.278;21.056;2023-08-17T07:40:58;100900.00;;;29.10
67353;BMP180;54238;52.278;21.056;2023-08-17T07:43:25;100898.00;;;29.06
67353;BMP180;54238;52.278;21.056;2023-08-17T07:45:58;100906.00;;;29.00
67353;BMP180;54238;52.278;21.056;2023-08-17T07:48:27;100912.20;;;29.10
67353;BMP180;54238;52.278;21.056;2023-08-17T07:51:04;100915.20;;;29.10
67353;BMP180;54238;52.278;21.056;2023-08-17T07:53:34;100914.60;;;29.10
67353;BMP180;54238;52.278;21.056;2023-08-17T07:56:01;100918.20;;;29.00
67353;BMP180;54238;52.278;21.056;2023-08-17T07:58:31;100913.80;;;29.10
67353;BMP180;54238;52.278;21.056;2023-08-17T08:01:01;100915.60;;;29.14
67353;BMP180;54238;52.278;21.056;2023-08-17T08:03:31;100914.80;;;29.24
67353;BMP180;54238;52.278;21.056;2023-08-17T08:06:02;100914.40;;;29.30
67353;BMP180;54238;52.278;21.056;2023-08-17T08:08:36;100917.20;;;29.40
67353;BMP180;54238;52.278;21.056;2023-08-17T08:11:04;100917.20;;;29.44
67353;BMP180;54238;52.278;21.056;2023-08-17T08:13:31;100914.40;;;29.50
67353;BMP180;54238;52.278;21.056;2023-08-17T08:15:59;100912.20;;;29.54
67353;BMP180;54238;52.278;21.056;2023-08-17T08:18:29;100912.80;;;29.60
67353;BMP180;54238;52.278;21.056;2023-08-17T08:20:58;100915.40;;;29.72
67353;BMP180;54238;52.278;21.056;2023-08-17T08:23:29;100917.80;;;29.80
67353;BMP180;54238;52.278;21.056;2023-08-17T08:25:59;100915.20;;;29.90
67353;BMP180;54238;52.278;21.056;2023-08-17T08:28:29;100920.20;;;30.00
67353;BMP180;54238;52.278;21.056;2023-08-17T08:31:04;100922.20;;;30.00
67353;BMP180;54238;52.278;21.056;2023-08-17T08:33:36;100916.00;;;30.10
67353;BMP180;54238;52.278;21.056;2023-08-17T08:36:05;100919.40;;;30.20
67353;BMP180;54238;52.278;21.056;2023-08-17T08:38:35;100915.60;;;30.40
67353;BMP180;54238;52.278;21.056;2023-08-17T08:41:07;100915.80;;;30.60
67353;BMP180;54238;52.278;21.056;2023-08-17T08:43:41;100919.20;;;30.72
67353;BMP180;54238;52.278;21.056;2023-08-17T08:46:09;100919.20;;;30.90
67353;BMP180;54238;52.278;21.056;2023-08-17T08:48:45;100916.20;;;31.00
67353;BMP180;54238;52.278;21.056;2023-08-17T08:51:23;100916.00;;;31.10
67353;BMP180;54238;52.278;21.056;2023-08-17T08:54:01;100915.00;;;31.30
67353;BMP180;54238;52.278;21.056;2023-08-17T08:56:32;100911.60;;;31.44
67353;BMP180;54238;52.278;21.056;2023-08-17T08:59:04;100915.20;;;31.60
67353;BMP180;54238;52.278;21.056;2023-08-17T09:01:38;100917.00;;;31.70
67353;BMP180;54238;52.278;21.056;2023-08-17T09:04:10;100918.60;;;31.72
67353;BMP180;54238;52.278;21.056;2023-08-17T09:06:41;100919.00;;;31.84
67353;BMP180;54238;52.278;21.056;2023-08-17T09:09:15;100920.20;;;31.90
67353;BMP180;54238;52.278;21.056;2023-08-17T09:11:43;100921.20;;;31.90
67353;BMP180;54238;52.278;21.056;2023-08-17T09:14:11;100918.60;;;32.00
67353;BMP180;54238;52.278;21.056;2023-08-17T09:16:40;100916.80;;;32.00
67353;BMP180;54238;52.278;21.056;2023-08-17T09:19:10;100916.80;;;32.20
67353;BMP180;54238;52.278;21.056;2023-08-17T09:21:42;100927.60;;;32.30
67353;BMP180;54238;52.278;21.056;2023-08-17T09:24:09;100926.40;;;32.34
67353;BMP180;54238;52.278;21.056;2023-08-17T09:26:41;100923.80;;;32.40
67353;BMP180;54238;52.278;21.056;2023-08-17T09:29:23;100924.80;;;32.60
67353;BMP180;54238;52.278;21.056;2023-08-17T09:31:55;100926.40;;;32.88
67353;BMP180;54238;52.278;21.056;2023-08-17T09:34:27;100924.60;;;33.10
67353;BMP180;54238;52.278;21.056;2023-08-17T09:37:05;100924.80;;;33.30
67353;BMP180;54238;52.278;21.056;2023-08-17T09:39:32;100921.00;;;33.58
67353;BMP180;54238;52.278;21.056;2023-08-17T09:42:02;100921.00;;;33.80
67353;BMP180;54238;52.278;21.056;2023-08-17T09:44:33;100925.40;;;33.90
67353;BMP180;54238;52.278;21.056;2023-08-17T09:47:04;100918.80;;;34.00
67353;BMP180;54238;52.278;21.056;2023-08-17T09:49:34;100919.60;;;34.22
67353;BMP180;54238;52.278;21.056;2023-08-17T09:52:04;100919.00;;;34.40
67353;BMP180;54238;52.278;21.056;2023-08-17T09:54:34;100918.00;;;34.60
67353;BMP180;54238;52.278;21.056;2023-08-17T09:57:06;100913.60;;;34.70
67353;BMP180;54238;52.278;21.056;2023-08-17T09:59:37;100912.80;;;34.90
67353;BMP180;54238;52.278;21.056;2023-08-17T10:02:21;100910.20;;;35.10
67353;BMP180;54238;52.278;21.056;2023-08-17T10:04:53;100911.20;;;35.40
67353;BMP180;54238;52.278;21.056;2023-08-17T10:07:24;100910.60;;;35.70
67353;BMP180;54238;52.278;21.056;2023-08-17T10:10:22;100915.40;;;36.04
67353;BMP180;54238;52.278;21.056;2023-08-17T10:13:08;100910.00;;;36.40
67353;BMP180;54238;52.278;21.056;2023-08-17T10:16:00;100914.40;;;36.80
67353;BMP180;54238;52.278;21.056;2023-08-17T10:18:54;100905.20;;;37.10
67353;BMP180;54238;52.278;21.056;2023-08-17T10:21:37;100908.80;;;37.30
67353;BMP180;54238;52.278;21.056;2023-08-17T10:24:08;100911.60;;;37.20
67353;BMP180;54238;52.278;21.056;2023-08-17T10:26:35;100911.60;;;37.20
67353;BMP180;54238;52.278;21.056;2023-08-17T10:29:06;100913.80;;;37.20
67353;BMP180;54238;52.278;21.056;2023-08-17T10:31:38;100911.40;;;37.30
67353;BMP180;54238;52.278;21.056;2023-08-17T10:34:08;100910.40;;;37.20
67353;BMP180;54238;52.278;21.056;2023-08-17T10:36:38;100905.60;;;37.40
67353;BMP180;54238;52.278;21.056;2023-08-17T10:39:25;100906.00;;;37.72
67353;BMP180;54238;52.278;21.056;2023-08-17T10:41:53;100903.20;;;38.10
67353;BMP180;54238;52.278;21.056;2023-08-17T10:44:48;100906.00;;;38.30
67353;BMP180;54238;52.278;21.056;2023-08-17T10:47:30;100908.40;;;38.60
67353;BMP180;54238;52.278;21.056;2023-08-17T10:50:19;100901.20;;;38.80
67353;BMP180;54238;52.278;21.056;2023-08-17T10:52:49;100900.20;;;38.96
67353;BMP180;54238;52.278;21.056;2023-08-17T10:55:17;100897.00;;;39.18
67353;BMP180;54238;52.278;21.056;2023-08-17T10:57:51;100896.60;;;39.46
67353;BMP180;54238;52.278;21.056;2023-08-17T11:00:21;100894.00;;;39.68
67353;BMP180;54238;52.278;21.056;2023-08-17T11:02:58;100898.40;;;39.94
67353;BMP180;54238;52.278;21.056;2023-08-17T11:08:33;100897.00;;;40.50
67353;BMP180;54238;52.278;21.056;2023-08-17T11:11:16;100888.00;;;40.80
67353;BMP180;54238;52.278;21.056;2023-08-17T11:13:47;100887.80;;;41.00
67353;BMP180;54238;52.278;21.056;2023-08-17T11:16:19;100885.20;;;41.20
67353;BMP180;54238;52.278;21.056;2023-08-17T11:18:47;100888.00;;;41.30
67353;BMP180;54238;52.278;21.056;2023-08-17T11:21:19;100883.40;;;41.40
67353;BMP180;54238;52.278;21.056;2023-08-17T11:23:47;100882.80;;;41.40
67353;BMP180;54238;52.278;21.056;2023-08-17T11:26:19;100879.60;;;41.38
67353;BMP180;54238;52.278;21.056;2023-08-17T11:28:46;100886.60;;;41.60
67353;BMP180;54238;52.278;21.056;2023-08-17T11:31:18;100884.40;;;41.60
67353;BMP180;54238;52.278;21.056;2023-08-17T11:33:45;100885.20;;;41.60
67353;BMP180;54238;52.278;21.056;2023-08-17T11:36:14;100879.40;;;41.60
67353;BMP180;54238;52.278;21.056;2023-08-17T11:38:46;100885.80;;;41.88
67353;BMP180;54238;52.278;21.056;2023-08-17T11:41:14;100882.20;;;42.20
67353;BMP180;54238;52.278;21.056;2023-08-17T11:43:43;100873.60;;;42.54
67353;BMP180;54238;52.278;21.056;2023-08-17T11:46:17;100880.40;;;42.80
67353;BMP180;54238;52.278;21.056;2023-08-17T11:48:44;100879.60;;;42.82
67353;BMP180;54238;52.278;21.056;2023-08-17T11:51:29;100880.80;;;42.80
67353;BMP180;54238;52.278;21.056;2023-08-17T11:54:00;100883.60;;;42.90
67353;BMP180;54238;52.278;21.056;2023-08-17T11:56:27;100876.20;;;42.56
67353;BMP180;54238;52.278;21.056;2023-08-17T11:59:10;100880.80;;;42.08
67353;BMP180;54238;52.278;21.056;2023-08-17T12:01:45;100878.00;;;41.48
67353;BMP180;54238;52.278;21.056;2023-08-17T12:04:14;100882.40;;;40.96
67353;BMP180;54238;52.278;21.056;2023-08-17T12:06:46;100880.00;;;40.50
67353;BMP180;54238;52.278;21.056;2023-08-17T12:09:18;100869.00;;;40.30
67353;BMP180;54238;52.278;21.056;2023-08-17T12:11:45;100870.20;;;40.20
67353;BMP180;54238;52.278;21.056;2023-08-17T12:14:16;100868.20;;;40.40
67353;BMP180;54238;52.278;21.056;2023-08-17T12:16:49;100867.00;;;40.60
67353;BMP180;54238;52.278;21.056;2023-08-17T12:19:19;100863.60;;;40.70
67353;BMP180;54238;52.278;21.056;2023-08-17T12:21:52;100858.60;;;41.08
67353;BMP180;54238;52.278;21.056;2023-08-17T12:24:23;100857.60;;;41.42
67353;BMP180;54238;52.278;21.056;2023-08-17T12:26:50;100861.00;;;41.80
67353;BMP180;54238;52.278;21.056;2023-08-17T12:29:20;100870.80;;;41.90
67353;BMP180;54238;52.278;21.056;2023-08-17T12:31:56;100865.80;;;42.00
67353;BMP180;54238;52.278;21.056;2023-08-17T12:34:26;100863.20;;;41.80
67353;BMP180;54238;52.278;21.056;2023-08-17T12:37:00;100863.20;;;41.80
67353;BMP180;54238;52.278;21.056;2023-08-17T12:39:27;100867.20;;;41.80
67353;BMP180;54238;52.278;21.056;2023-08-17T12:41:56;100865.20;;;41.90
67353;BMP180;54238;52.278;21.056;2023-08-17T12:44:26;100867.60;;;41.90
67353;BMP180;54238;52.278;21.056;2023-08-17T12:46:53;100863.00;;;41.72
67353;BMP180;54238;52.278;21.056;2023-08-17T12:49:23;100864.00;;;41.60
67353;BMP180;54238;52.278;21.056;2023-08-17T12:51:53;100855.60;;;41.60
67353;BMP180;54238;52.278;21.056;2023-08-17T12:54:22;100860.80;;;41.60
67353;BMP180;54238;52.278;21.056;2023-08-17T12:56:51;100862.20;;;41.70
67353;BMP180;54238;52.278;21.056;2023-08-17T12:59:23;100858.80;;;41.78
67353;BMP180;54238;52.278;21.056;2023-08-17T13:01:55;100855.00;;;41.80
67353;BMP180;54238;52.278;21.056;2023-08-17T13:04:25;100859.80;;;41.80
67353;BMP180;54238;52.278;21.056;2023-08-17T13:06:58;100850.40;;;42.00
67353;BMP180;54238;52.278;21.056;2023-08-17T13:09:28;100850.00;;;42.26
67353;BMP180;54238;52.278;21.056;2023-08-17T13:11:55;100844.60;;;42.54
67353;BMP180;54238;52.278;21.056;2023-08-17T13:14:25;100848.60;;;42.60
67353;BMP180;54238;52.278;21.056;2023-08-17T13:16:59;100852.60;;;42.82
67353;BMP180;54238;52.278;21.056;2023-08-17T13:19:31;100845.80;;;43.24
67353;BMP180;54238;52.278;21.056;2023-08-17T13:21:59;100844.40;;;43.50
67353;BMP180;54238;52.278;21.056;2023-08-17T13:24:28;100844.60;;;43.56
67353;BMP180;54238;52.278;21.056;2023-08-17T13:26:58;100846.80;;;43.80
67353;BMP180;54238;52.278;21.056;2023-08-17T13:29:25;100840.80;;;44.10
67353;BMP180;54238;52.278;21.056;2023-08-17T13:31:58;100839.60;;;44.20
67353;BMP180;54238;52.278;21.056;2023-08-17T13:34:25;100843.40;;;44.30
67353;BMP180;54238;52.278;21.056;2023-08-17T13:36:52;100839.60;;;44.18
67353;BMP180;54238;52.278;21.056;2023-08-17T13:39:19;100844.80;;;44.10
67353;BMP180;54238;52.278;21.056;2023-08-17T13:41:51;100838.80;;;43.90
67353;BMP180;54238;52.278;21.056;2023-08-17T13:44:22;100841.00;;;43.70
67353;BMP180;54238;52.278;21.056;2023-08-17T13:46:52;100836.40;;;43.60
67353;BMP180;54238;52.278;21.056;2023-08-17T13:49:23;100838.80;;;43.36
67353;BMP180;54238;52.278;21.056;2023-08-17T13:51:50;100834.80;;;43.10
67353;BMP180;54238;52.278;21.056;2023-08-17T13:54:17;100832.40;;;43.20
67353;BMP180;54238;52.278;21.056;2023-08-17T13:56:47;100833.60;;;43.30
67353;BMP180;54238;52.278;21.056;2023-08-17T13:59:14;100829.20;;;43.40
67353;BMP180;54238;52.278;21.056;2023-08-17T14:01:43;100831.60;;;43.70
67353;BMP180;54238;52.278;21.056;2023-08-17T14:04:13;100837.20;;;44.00
67353;BMP180;54238;52.278;21.056;2023-08-17T14:06:45;100837.20;;;44.10
67353;BMP180;54238;52.278;21.056;2023-08-17T14:09:14;100832.80;;;44.18